sensor_id;sensor_type;location;lat;lon;timestamp;temperature;humidity
7325;DHT22;3703;48.016;7.802;2023-05-16T00:01:39;17.70;1.00
7325;DHT22;3703;48.016;7.802;2023-05-16T00:04:06;17.70;99.90
7325;DHT22;3703;48.016;7.802;2023-05-16T00:06:34;17.70;99.90
7325;DHT22;3703;48.016;7.802;2023-05-16T00:09:01;17.60;1.00
7325;DHT22;3703;48.016;7.802;2023-05-16T00:11:28;17.60;1.00
7325;DHT22;3703;48.016;7.802;2023-05-16T00:13:57;17.40;1.00
7325;DHT22;3703;48.016;7.802;2023-05-16T00:16:26;17.50;1.00
7325;DHT22;3703;48.016;7.802;2023-05-16T00:18:54;17.60;1.00
7325;DHT22;3703;48.016;7.802;2023-05-16T00:21:22;17.50;1.00
7325;DHT22;3703;48.016;7.802;2023-05-16T00:23:49;17.50;1.00
7325;DHT22;3703;48.016;7.802;2023-05-16T00:26:17;17.50;1.00
7325;DHT22;3703;48.016;7.802;2023-05-16T00:28:44;17.50;1.00
7325;DHT22;3703;48.016;7.802;2023-05-16T00:31:12;17.50;1.00
7325;DHT22;3703;48.016;7.802;2023-05-16T00:33:40;17.60;1.00
7325;DHT22;3703;48.016;7.802;2023-05-16T00:36:07;17.60;1.00
7325;DHT22;3703;48.016;7.802;2023-05-16T00:38:35;17.50;1.00
7325;DHT22;3703;48.016;7.802;2023-05-16T00:41:02;17.50;1.00
7325;DHT22;3703;48.016;7.802;2023-05-16T00:43:30;17.50;1.00
7325;DHT22;3703;48.016;7.802;2023-05-16T00:48:26;17.50;1.00
7325;DHT22;3703;48.016;7.802;2023-05-16T00:50:54;17.30;1.00
7325;DHT22;3703;48.016;7.802;2023-05-16T00:53:22;17.30;1.00
7325;DHT22;3703;48.016;7.802;2023-05-16T00:55:50;17.40;1.00
7325;DHT22;3703;48.016;7.802;2023-05-16T00:58:18;17.30;1.00
7325;DHT22;3703;48.016;7.802;2023-05-16T01:00:45;17.30;1.00
7325;DHT22;3703;48.016;7.802;2023-05-16T01:03:12;17.40;1.00
7325;DHT22;3703;48.016;7.802;2023-05-16T01:05:41;17.50;1.00
7325;DHT22;3703;48.016;7.802;2023-05-16T01:08:09;17.40;1.00
7325;DHT22;3703;48.016;7.802;2023-05-16T01:10:46;17.30;1.00
7325;DHT22;3703;48.016;7.802;2023-05-16T01:13:21;17.30;1.00
7325;DHT22;3703;48.016;7.802;2023-05-16T01:16:03;17.20;1.00
7325;DHT22;3703;48.016;7.802;2023-05-16T01:18:36;17.40;1.00
7325;DHT22;3703;48.016;7.802;2023-05-16T01:21:14;17.50;1.00
7325;DHT22;3703;48.016;7.802;2023-05-16T01:23:51;17.50;1.00
7325;DHT22;3703;48.016;7.802;2023-05-16T01:26:26;17.40;1.00
7325;DHT22;3703;48.016;7.802;2023-05-16T01:28:55;17.50;1.00
7325;DHT22;3703;48.016;7.802;2023-05-16T01:31:22;17.50;1.00
7325;DHT22;3703;48.016;7.802;2023-05-16T01:33:50;17.50;1.00
7325;DHT22;3703;48.016;7.802;2023-05-16T01:36:23;17.50;1.00
7325;DHT22;3703;48.016;7.802;2023-05-16T01:39:04;17.40;1.00
7325;DHT22;3703;48.016;7.802;2023-05-16T01:41:40;17.50;1.00
7325;DHT22;3703;48.016;7.802;2023-05-16T01:44:17;17.60;1.00
7325;DHT22;3703;48.016;7.802;2023-05-16T01:46:48;17.60;1.00
7325;DHT22;3703;48.016;7.802;2023-05-16T01:49:24;17.60;1.00
7325;DHT22;3703;48.016;7.802;2023-05-16T01:51:58;17.60;1.00
7325;DHT22;3703;48.016;7.802;2023-05-16T01:54:30;17.40;1.00
7325;DHT22;3703;48.016;7.802;2023-05-16T01:56:59;17.10;1.00
7325;DHT22;3703;48.016;7.802;2023-05-16T01:59:28;17.40;1.00
7325;DHT22;3703;48.016;7.802;2023-05-16T02:01:56;17.50;1.00
7325;DHT22;3703;48.016;7.802;2023-05-16T02:04:23;18.80;1.00
7325;DHT22;3703;48.016;7.802;2023-05-16T02:06:51;17.50;1.00
7325;DHT22;3703;48.016;7.802;2023-05-16T02:09:18;17.40;1.00
7325;DHT22;3703;48.016;7.802;2023-05-16T02:11:45;17.40;1.00
7325;DHT22;3703;48.016;7.802;2023-05-16T02:14:14;17.50;1.00
7325;DHT22;3703;48.016;7.802;2023-05-16T02:16:41;17.50;1.00
7325;DHT22;3703;48.016;7.802;2023-05-16T02:19:08;17.50;1.00
7325;DHT22;3703;48.016;7.802;2023-05-16T02:21:35;17.50;1.00
7325;DHT22;3703;48.016;7.802;2023-05-16T02:24:03;17.40;1.00
7325;DHT22;3703;48.016;7.802;2023-05-16T02:26:30;18.00;1.00
7325;DHT22;3703;48.016;7.802;2023-05-16T02:28:58;17.30;1.00
7325;DHT22;3703;48.016;7.802;2023-05-16T02:31:27;17.40;1.00
7325;DHT22;3703;48.016;7.802;2023-05-16T02:33:58;17.30;1.00
7325;DHT22;3703;48.016;7.802;2023-05-16T02:36:26;17.30;1.00
7325;DHT22;3703;48.016;7.802;2023-05-16T02:38:53;17.30;1.00
7325;DHT22;3703;48.016;7.802;2023-05-16T02:41:21;17.30;1.00
7325;DHT22;3703;48.016;7.802;2023-05-16T02:43:48;17.40;1.00
7325;DHT22;3703;48.016;7.802;2023-05-16T02:46:22;17.30;1.00
7325;DHT22;3703;48.016;7.802;2023-05-16T02:48:53;17.40;1.00
7325;DHT22;3703;48.016;7.802;2023-05-16T02:51:22;17.40;1.00
7325;DHT22;3703;48.016;7.802;2023-05-16T02:53:52;17.50;1.00
7325;DHT22;3703;48.016;7.802;2023-05-16T02:56:21;17.40;1.00
7325;DHT22;3703;48.016;7.802;2023-05-16T02:58:49;17.40;1.00
7325;DHT22;3703;48.016;7.802;2023-05-16T03:01:16;17.20;1.00
7325;DHT22;3703;48.016;7.802;2023-05-16T03:03:43;17.30;1.00
7325;DHT22;3703;48.016;7.802;2023-05-16T03:06:12;17.30;1.00
7325;DHT22;3703;48.016;7.802;2023-05-16T03:08:39;17.10;1.00
7325;DHT22;3703;48.016;7.802;2023-05-16T03:11:06;17.10;1.00
7325;DHT22;3703;48.016;7.802;2023-05-16T03:13:33;17.10;1.00
7325;DHT22;3703;48.016;7.802;2023-05-16T03:16:01;17.20;1.00
7325;DHT22;3703;48.016;7.802;2023-05-16T03:18:28;17.20;1.00
7325;DHT22;3703;48.016;7.802;2023-05-16T03:20:55;17.20;1.00
7325;DHT22;3703;48.016;7.802;2023-05-16T03:23:24;17.20;1.00
7325;DHT22;3703;48.016;7.802;2023-05-16T03:25:52;17.30;1.00
7325;DHT22;3703;48.016;7.802;2023-05-16T03:28:19;17.20;1.00
7325;DHT22;3703;48.016;7.802;2023-05-16T03:30:46;17.10;1.00
7325;DHT22;3703;48.016;7.802;2023-05-16T03:33:13;17.10;1.00
7325;DHT22;3703;48.016;7.802;2023-05-16T03:35:41;17.10;1.00
7325;DHT22;3703;48.016;7.802;2023-05-16T03:38:09;17.10;1.00
7325;DHT22;3703;48.016;7.802;2023-05-16T03:40:38;17.20;1.00
7325;DHT22;3703;48.016;7.802;2023-05-16T03:43:05;16.90;1.00
7325;DHT22;3703;48.016;7.802;2023-05-16T03:45:33;16.80;1.00
7325;DHT22;3703;48.016;7.802;2023-05-16T03:48:00;16.80;1.00
7325;DHT22;3703;48.016;7.802;2023-05-16T03:50:27;16.90;1.00
7325;DHT22;3703;48.016;7.802;2023-05-16T03:52:54;16.90;1.00
7325;DHT22;3703;48.016;7.802;2023-05-16T03:55:22;17.00;1.00
7325;DHT22;3703;48.016;7.802;2023-05-16T03:57:51;17.00;1.00
7325;DHT22;3703;48.016;7.802;2023-05-16T04:00:18;17.00;1.00
7325;DHT22;3703;48.016;7.802;2023-05-16T04:02:45;16.90;1.00
7325;DHT22;3703;48.016;7.802;2023-05-16T04:05:12;16.70;1.00
7325;DHT22;3703;48.016;7.802;2023-05-16T04:07:40;16.60;1.00
7325;DHT22;3703;48.016;7.802;2023-05-16T04:10:08;16.40;1.00
7325;DHT22;3703;48.016;7.802;2023-05-16T04:12:36;16.60;1.00
7325;DHT22;3703;48.016;7.802;2023-05-16T04:15:06;16.40;1.00
7325;DHT22;3703;48.016;7.802;2023-05-16T04:17:33;16.60;1.00
7325;DHT22;3703;48.016;7.802;2023-05-16T04:20:01;16.80;1.00
7325;DHT22;3703;48.016;7.802;2023-05-16T04:22:29;16.90;1.00
7325;DHT22;3703;48.016;7.802;2023-05-16T04:24:56;16.90;1.00
7325;DHT22;3703;48.016;7.802;2023-05-16T04:27:24;16.90;1.00
7325;DHT22;3703;48.016;7.802;2023-05-16T04:29:51;17.00;1.00
7325;DHT22;3703;48.016;7.802;2023-05-16T04:32:20;16.90;1.00
7325;DHT22;3703;48.016;7.802;2023-05-16T04:34:48;16.90;1.00
7325;DHT22;3703;48.016;7.802;2023-05-16T04:37:17;16.50;1.00
7325;DHT22;3703;48.016;7.802;2023-05-16T04:39:45;16.70;1.00
7325;DHT22;3703;48.016;7.802;2023-05-16T04:42:12;16.70;1.00
7325;DHT22;3703;48.016;7.802;2023-05-16T04:44:39;16.70;1.00
7325;DHT22;3703;48.016;7.802;2023-05-16T04:47:07;16.80;1.00
7325;DHT22;3703;48.016;7.802;2023-05-16T04:49:35;16.90;1.00
7325;DHT22;3703;48.016;7.802;2023-05-16T04:52:03;16.80;1.00
7325;DHT22;3703;48.016;7.802;2023-05-16T04:54:32;16.80;1.00
7325;DHT22;3703;48.016;7.802;2023-05-16T04:56:59;16.80;1.00
7325;DHT22;3703;48.016;7.802;2023-05-16T04:59:26;16.80;1.00
7325;DHT22;3703;48.016;7.802;2023-05-16T05:01:54;16.90;1.00
7325;DHT22;3703;48.016;7.802;2023-05-16T05:04:21;16.90;1.00
7325;DHT22;3703;48.016;7.802;2023-05-16T05:06:49;16.90;1.00
7325;DHT22;3703;48.016;7.802;2023-05-16T05:09:16;16.90;1.00
7325;DHT22;3703;48.016;7.802;2023-05-16T05:11:44;16.80;1.00
7325;DHT22;3703;48.016;7.802;2023-05-16T05:14:11;16.90;1.00
7325;DHT22;3703;48.016;7.802;2023-05-16T05:16:38;16.90;1.00
7325;DHT22;3703;48.016;7.802;2023-05-16T05:19:05;16.90;1.00
7325;DHT22;3703;48.016;7.802;2023-05-16T05:21:33;16.90;1.00
7325;DHT22;3703;48.016;7.802;2023-05-16T05:24:02;16.70;1.00
7325;DHT22;3703;48.016;7.802;2023-05-16T05:26:29;16.80;1.00
7325;DHT22;3703;48.016;7.802;2023-05-16T05:28:57;17.10;1.00
7325;DHT22;3703;48.016;7.802;2023-05-16T05:31:24;16.70;1.00
7325;DHT22;3703;48.016;7.802;2023-05-16T05:33:51;16.60;1.00
7325;DHT22;3703;48.016;7.802;2023-05-16T05:36:19;16.70;1.00
7325;DHT22;3703;48.016;7.802;2023-05-16T05:38:46;16.80;1.00
7325;DHT22;3703;48.016;7.802;2023-05-16T05:41:15;16.60;1.00
7325;DHT22;3703;48.016;7.802;2023-05-16T05:43:42;16.40;1.00
7325;DHT22;3703;48.016;7.802;2023-05-16T05:46:09;16.50;1.00
7325;DHT22;3703;48.016;7.802;2023-05-16T05:48:37;16.40;1.00
7325;DHT22;3703;48.016;7.802;2023-05-16T05:51:04;16.50;1.00
7325;DHT22;3703;48.016;7.802;2023-05-16T05:53:31;16.60;1.00
7325;DHT22;3703;48.016;7.802;2023-05-16T05:55:59;16.60;1.00
7325;DHT22;3703;48.016;7.802;2023-05-16T05:58:28;16.70;1.00
7325;DHT22;3703;48.016;7.802;2023-05-16T06:00:55;16.50;1.00
7325;DHT22;3703;48.016;7.802;2023-05-16T06:03:22;16.60;1.00
7325;DHT22;3703;48.016;7.802;2023-05-16T06:05:49;16.20;1.00
7325;DHT22;3703;48.016;7.802;2023-05-16T06:08:16;16.50;1.00
7325;DHT22;3703;48.016;7.802;2023-05-16T06:10:43;16.50;1.00
7325;DHT22;3703;48.016;7.802;2023-05-16T06:13:10;16.60;1.00
7325;DHT22;3703;48.016;7.802;2023-05-16T06:15:39;16.30;1.00
7325;DHT22;3703;48.016;7.802;2023-05-16T06:18:07;16.60;1.00
7325;DHT22;3703;48.016;7.802;2023-05-16T06:20:34;16.50;1.00
7325;DHT22;3703;48.016;7.802;2023-05-16T06:23:01;16.70;1.00
7325;DHT22;3703;48.016;7.802;2023-05-16T06:27:56;16.90;1.00
7325;DHT22;3703;48.016;7.802;2023-05-16T06:30:23;16.70;1.00
7325;DHT22;3703;48.016;7.802;2023-05-16T06:32:51;16.80;1.00
7325;DHT22;3703;48.016;7.802;2023-05-16T06:35:19;16.60;1.00
7325;DHT22;3703;48.016;7.802;2023-05-16T06:37:46;16.50;1.00
7325;DHT22;3703;48.016;7.802;2023-05-16T06:40:13;16.60;1.00
7325;DHT22;3703;48.016;7.802;2023-05-16T06:42:40;16.70;1.00
7325;DHT22;3703;48.016;7.802;2023-05-16T06:45:08;16.50;1.00
7325;DHT22;3703;48.016;7.802;2023-05-16T06:47:36;16.60;1.00
7325;DHT22;3703;48.016;7.802;2023-05-16T06:50:06;16.70;1.00
7325;DHT22;3703;48.016;7.802;2023-05-16T06:52:34;16.60;1.00
7325;DHT22;3703;48.016;7.802;2023-05-16T06:55:01;16.60;1.00
7325;DHT22;3703;48.016;7.802;2023-05-16T06:57:29;16.40;1.00
7325;DHT22;3703;48.016;7.802;2023-05-16T06:59:56;16.40;1.00
7325;DHT22;3703;48.016;7.802;2023-05-16T07:02:23;16.50;1.00
7325;DHT22;3703;48.016;7.802;2023-05-16T07:04:50;16.50;1.00
7325;DHT22;3703;48.016;7.802;2023-05-16T07:07:19;16.30;1.00
7325;DHT22;3703;48.016;7.802;2023-05-16T07:09:46;16.20;1.00
7325;DHT22;3703;48.016;7.802;2023-05-16T07:12:13;16.30;1.00
7325;DHT22;3703;48.016;7.802;2023-05-16T07:14:41;16.00;1.00
7325;DHT22;3703;48.016;7.802;2023-05-16T07:17:08;15.40;1.00
7325;DHT22;3703;48.016;7.802;2023-05-16T07:19:35;15.30;1.00
7325;DHT22;3703;48.016;7.802;2023-05-16T07:22:03;14.90;1.00
7325;DHT22;3703;48.016;7.802;2023-05-16T07:24:32;15.00;1.00
7325;DHT22;3703;48.016;7.802;2023-05-16T07:27:00;15.70;1.00
7325;DHT22;3703;48.016;7.802;2023-05-16T07:29:28;14.70;1.00
7325;DHT22;3703;48.016;7.802;2023-05-16T07:31:56;14.40;1.00
7325;DHT22;3703;48.016;7.802;2023-05-16T07:34:24;14.70;1.00
7325;DHT22;3703;48.016;7.802;2023-05-16T07:36:51;14.70;1.00
7325;DHT22;3703;48.016;7.802;2023-05-16T07:41:47;14.70;1.00
7325;DHT22;3703;48.016;7.802;2023-05-16T07:44:14;14.30;1.00
7325;DHT22;3703;48.016;7.802;2023-05-16T07:46:41;14.10;3.60
7325;DHT22;3703;48.016;7.802;2023-05-16T07:49:09;14.30;1.00
7325;DHT22;3703;48.016;7.802;2023-05-16T07:51:36;14.30;1.00
7325;DHT22;3703;48.016;7.802;2023-05-16T07:54:03;14.00;23.00
7325;DHT22;3703;48.016;7.802;2023-05-16T07:56:31;14.10;12.90
7325;DHT22;3703;48.016;7.802;2023-05-16T07:59:00;14.20;9.80
7325;DHT22;3703;48.016;7.802;2023-05-16T08:01:27;14.20;10.80
7325;DHT22;3703;48.016;7.802;2023-05-16T08:03:54;14.10;11.40
7325;DHT22;3703;48.016;7.802;2023-05-16T08:08:49;14.00;16.90
7325;DHT22;3703;48.016;7.802;2023-05-16T08:11:18;14.00;34.20
7325;DHT22;3703;48.016;7.802;2023-05-16T08:13:47;13.80;24.80
7325;DHT22;3703;48.016;7.802;2023-05-16T08:16:15;13.90;41.60
7325;DHT22;3703;48.016;7.802;2023-05-16T08:18:43;13.80;28.30
7325;DHT22;3703;48.016;7.802;2023-05-16T08:21:10;14.00;30.80
7325;DHT22;3703;48.016;7.802;2023-05-16T08:23:38;14.00;20.10
7325;DHT22;3703;48.016;7.802;2023-05-16T08:26:06;13.90;30.00
7325;DHT22;3703;48.016;7.802;2023-05-16T08:28:33;14.00;20.10
7325;DHT22;3703;48.016;7.802;2023-05-16T08:31:00;13.90;23.50
7325;DHT22;3703;48.016;7.802;2023-05-16T08:33:29;14.00;25.90
7325;DHT22;3703;48.016;7.802;2023-05-16T08:35:56;14.50;23.80
7325;DHT22;3703;48.016;7.802;2023-05-16T08:38:23;14.30;11.50
7325;DHT22;3703;48.016;7.802;2023-05-16T08:40:50;14.20;15.40
7325;DHT22;3703;48.016;7.802;2023-05-16T08:43:17;14.10;17.80
7325;DHT22;3703;48.016;7.802;2023-05-16T08:45:45;14.30;25.80
7325;DHT22;3703;48.016;7.802;2023-05-16T08:48:13;12.90;14.20
7325;DHT22;3703;48.016;7.802;2023-05-16T08:50:43;14.30;18.30
7325;DHT22;3703;48.016;7.802;2023-05-16T08:53:11;14.50;11.80
7325;DHT22;3703;48.016;7.802;2023-05-16T08:55:41;14.00;15.70
7325;DHT22;3703;48.016;7.802;2023-05-16T08:58:11;14.30;23.60
7325;DHT22;3703;48.016;7.802;2023-05-16T09:00:38;14.20;13.10
7325;DHT22;3703;48.016;7.802;2023-05-16T09:03:06;14.20;20.80
7325;DHT22;3703;48.016;7.802;2023-05-16T09:05:33;13.90;19.00
7325;DHT22;3703;48.016;7.802;2023-05-16T09:08:02;14.00;7.40
7325;DHT22;3703;48.016;7.802;2023-05-16T09:10:31;14.00;17.00
7325;DHT22;3703;48.016;7.802;2023-05-16T09:12:58;14.10;15.40
7325;DHT22;3703;48.016;7.802;2023-05-16T09:15:30;14.00;11.20
7325;DHT22;3703;48.016;7.802;2023-05-16T09:18:00;14.10;11.00
7325;DHT22;3703;48.016;7.802;2023-05-16T09:20:27;14.10;11.40
7325;DHT22;3703;48.016;7.802;2023-05-16T09:22:56;13.90;13.10
7325;DHT22;3703;48.016;7.802;2023-05-16T09:25:27;13.80;19.00
7325;DHT22;3703;48.016;7.802;2023-05-16T09:27:57;13.80;20.60
7325;DHT22;3703;48.016;7.802;2023-05-16T09:30:27;13.70;25.90
7325;DHT22;3703;48.016;7.802;2023-05-16T09:32:56;13.60;30.60
7325;DHT22;3703;48.016;7.802;2023-05-16T09:35:23;13.40;31.30
7325;DHT22;3703;48.016;7.802;2023-05-16T09:37:50;13.50;37.50
7325;DHT22;3703;48.016;7.802;2023-05-16T09:40:22;13.60;35.70
7325;DHT22;3703;48.016;7.802;2023-05-16T09:43:01;13.50;28.70
7325;DHT22;3703;48.016;7.802;2023-05-16T09:45:30;13.40;36.30
7325;DHT22;3703;48.016;7.802;2023-05-16T09:48:01;13.60;36.30
7325;DHT22;3703;48.016;7.802;2023-05-16T09:50:32;13.50;34.30
7325;DHT22;3703;48.016;7.802;2023-05-16T09:53:00;13.40;36.50
7325;DHT22;3703;48.016;7.802;2023-05-16T09:55:29;13.50;40.00
7325;DHT22;3703;48.016;7.802;2023-05-16T09:57:57;13.40;38.60
7325;DHT22;3703;48.016;7.802;2023-05-16T10:00:28;13.50;36.80
7325;DHT22;3703;48.016;7.802;2023-05-16T10:02:57;13.60;39.10
7325;DHT22;3703;48.016;7.802;2023-05-16T10:05:25;13.60;37.60
7325;DHT22;3703;48.016;7.802;2023-05-16T10:07:55;13.60;47.00
7325;DHT22;3703;48.016;7.802;2023-05-16T10:10:23;13.50;34.60
7325;DHT22;3703;48.016;7.802;2023-05-16T10:12:52;13.60;36.60
7325;DHT22;3703;48.016;7.802;2023-05-16T10:15:22;13.70;31.00
7325;DHT22;3703;48.016;7.802;2023-05-16T10:17:50;13.70;28.60
7325;DHT22;3703;48.016;7.802;2023-05-16T10:20:19;13.60;38.00
7325;DHT22;3703;48.016;7.802;2023-05-16T10:22:50;13.70;35.50
7325;DHT22;3703;48.016;7.802;2023-05-16T10:25:24;13.70;38.60
7325;DHT22;3703;48.016;7.802;2023-05-16T10:27:52;13.70;30.40
7325;DHT22;3703;48.016;7.802;2023-05-16T10:30:22;14.10;42.40
7325;DHT22;3703;48.016;7.802;2023-05-16T10:32:51;13.40;43.40
7325;DHT22;3703;48.016;7.802;2023-05-16T10:35:19;13.30;47.80
7325;DHT22;3703;48.016;7.802;2023-05-16T10:37:47;13.50;45.30
7325;DHT22;3703;48.016;7.802;2023-05-16T10:40:16;13.50;41.60
7325;DHT22;3703;48.016;7.802;2023-05-16T10:42:54;13.60;32.80
7325;DHT22;3703;48.016;7.802;2023-05-16T10:45:23;13.70;34.60
7325;DHT22;3703;48.016;7.802;2023-05-16T10:47:52;13.50;41.00
7325;DHT22;3703;48.016;7.802;2023-05-16T10:50:36;13.50;43.80
7325;DHT22;3703;48.016;7.802;2023-05-16T10:53:14;13.60;42.20
7325;DHT22;3703;48.016;7.802;2023-05-16T10:55:49;13.60;39.60
7325;DHT22;3703;48.016;7.802;2023-05-16T10:58:23;13.40;40.80
7325;DHT22;3703;48.016;7.802;2023-05-16T11:01:20;13.50;41.60
7325;DHT22;3703;48.016;7.802;2023-05-16T11:04:05;13.40;45.70
7325;DHT22;3703;48.016;7.802;2023-05-16T11:06:43;13.30;46.90
7325;DHT22;3703;48.016;7.802;2023-05-16T11:09:20;13.30;52.30
7325;DHT22;3703;48.016;7.802;2023-05-16T11:11:57;13.20;53.20
7325;DHT22;3703;48.016;7.802;2023-05-16T11:14:28;13.30;53.80
7325;DHT22;3703;48.016;7.802;2023-05-16T11:17:07;13.20;53.00
7325;DHT22;3703;48.016;7.802;2023-05-16T11:19:39;13.10;56.90
7325;DHT22;3703;48.016;7.802;2023-05-16T11:22:12;14.30;84.90
7325;DHT22;3703;48.016;7.802;2023-05-16T11:24:52;13.80;76.20
7325;DHT22;3703;48.016;7.802;2023-05-16T11:27:24;14.50;54.90
7325;DHT22;3703;48.016;7.802;2023-05-16T11:29:54;14.80;32.60
7325;DHT22;3703;48.016;7.802;2023-05-16T11:32:27;14.90;15.50
7325;DHT22;3703;48.016;7.802;2023-05-16T11:34:55;15.10;6.20
7325;DHT22;3703;48.016;7.802;2023-05-16T11:37:22;15.10;1.00
7325;DHT22;3703;48.016;7.802;2023-05-16T11:39:50;15.20;1.00
7325;DHT22;3703;48.016;7.802;2023-05-16T11:42:17;15.40;1.00
7325;DHT22;3703;48.016;7.802;2023-05-16T11:44:44;15.70;1.00
7325;DHT22;3703;48.016;7.802;2023-05-16T11:47:11;15.70;1.00
7325;DHT22;3703;48.016;7.802;2023-05-16T11:49:40;16.20;6.70
7325;DHT22;3703;48.016;7.802;2023-05-16T11:52:07;16.30;1.00
7325;DHT22;3703;48.016;7.802;2023-05-16T11:54:35;16.90;1.00
7325;DHT22;3703;48.016;7.802;2023-05-16T11:57:03;17.10;1.00
7325;DHT22;3703;48.016;7.802;2023-05-16T11:59:31;17.10;1.00
7325;DHT22;3703;48.016;7.802;2023-05-16T12:02:02;16.40;1.00
7325;DHT22;3703;48.016;7.802;2023-05-16T12:04:31;16.50;1.00
7325;DHT22;3703;48.016;7.802;2023-05-16T12:07:00;16.30;1.00
7325;DHT22;3703;48.016;7.802;2023-05-16T12:09:28;16.50;1.00
7325;DHT22;3703;48.016;7.802;2023-05-16T12:11:56;16.70;1.00
7325;DHT22;3703;48.016;7.802;2023-05-16T12:14:23;16.90;1.00
7325;DHT22;3703;48.016;7.802;2023-05-16T12:16:51;17.00;1.00
7325;DHT22;3703;48.016;7.802;2023-05-16T12:19:19;17.10;1.00
7325;DHT22;3703;48.016;7.802;2023-05-16T12:21:50;17.00;1.00
7325;DHT22;3703;48.016;7.802;2023-05-16T12:24:20;17.20;1.00
7325;DHT22;3703;48.016;7.802;2023-05-16T12:26:47;16.90;1.00
7325;DHT22;3703;48.016;7.802;2023-05-16T12:29:14;16.50;1.00
7325;DHT22;3703;48.016;7.802;2023-05-16T12:31:41;16.70;1.00
7325;DHT22;3703;48.016;7.802;2023-05-16T12:34:16;16.50;1.00
7325;DHT22;3703;48.016;7.802;2023-05-16T12:36:44;16.80;1.00
7325;DHT22;3703;48.016;7.802;2023-05-16T12:39:12;16.80;1.00
7325;DHT22;3703;48.016;7.802;2023-05-16T12:41:42;16.80;1.00
7325;DHT22;3703;48.016;7.802;2023-05-16T12:44:13;16.80;1.00
7325;DHT22;3703;48.016;7.802;2023-05-16T12:46:43;16.70;1.00
7325;DHT22;3703;48.016;7.802;2023-05-16T12:49:11;16.50;1.00
7325;DHT22;3703;48.016;7.802;2023-05-16T12:51:39;16.50;1.00
7325;DHT22;3703;48.016;7.802;2023-05-16T12:54:08;16.80;1.00
7325;DHT22;3703;48.016;7.802;2023-05-16T12:56:36;16.50;1.00
7325;DHT22;3703;48.016;7.802;2023-05-16T12:59:07;16.70;1.00
7325;DHT22;3703;48.016;7.802;2023-05-16T13:01:34;16.90;1.00
7325;DHT22;3703;48.016;7.802;2023-05-16T13:04:02;16.70;1.00
7325;DHT22;3703;48.016;7.802;2023-05-16T13:06:29;16.80;1.00
7325;DHT22;3703;48.016;7.802;2023-05-16T13:08:57;16.60;1.00
7325;DHT22;3703;48.016;7.802;2023-05-16T13:11:25;16.80;1.00
7325;DHT22;3703;48.016;7.802;2023-05-16T13:13:52;16.50;1.00
7325;DHT22;3703;48.016;7.802;2023-05-16T13:16:21;16.70;1.00
7325;DHT22;3703;48.016;7.802;2023-05-16T13:18:48;16.70;1.00
7325;DHT22;3703;48.016;7.802;2023-05-16T13:21:16;16.30;1.00
7325;DHT22;3703;48.016;7.802;2023-05-16T13:23:44;16.60;1.00
7325;DHT22;3703;48.016;7.802;2023-05-16T13:26:11;16.80;1.00
7325;DHT22;3703;48.016;7.802;2023-05-16T13:28:39;16.70;1.00
7325;DHT22;3703;48.016;7.802;2023-05-16T13:31:06;17.10;1.00
7325;DHT22;3703;48.016;7.802;2023-05-16T13:33:35;16.90;1.00
7325;DHT22;3703;48.016;7.802;2023-05-16T13:36:03;15.80;1.00
7325;DHT22;3703;48.016;7.802;2023-05-16T13:38:31;15.80;1.00
7325;DHT22;3703;48.016;7.802;2023-05-16T13:40:58;15.30;1.00
7325;DHT22;3703;48.016;7.802;2023-05-16T13:43:25;15.10;1.00
7325;DHT22;3703;48.016;7.802;2023-05-16T13:45:52;14.40;1.00
7325;DHT22;3703;48.016;7.802;2023-05-16T13:48:20;14.00;1.00
7325;DHT22;3703;48.016;7.802;2023-05-16T13:50:48;13.80;1.00
7325;DHT22;3703;48.016;7.802;2023-05-16T13:53:16;13.70;1.00
7325;DHT22;3703;48.016;7.802;2023-05-16T13:55:43;14.20;1.00
7325;DHT22;3703;48.016;7.802;2023-05-16T13:58:11;13.70;1.00
7325;DHT22;3703;48.016;7.802;2023-05-16T14:00:38;13.20;1.00
7325;DHT22;3703;48.016;7.802;2023-05-16T14:03:05;13.70;1.00
7325;DHT22;3703;48.016;7.802;2023-05-16T14:05:32;13.30;1.00
7325;DHT22;3703;48.016;7.802;2023-05-16T14:08:01;13.30;1.00
7325;DHT22;3703;48.016;7.802;2023-05-16T14:10:29;13.30;1.00
7325;DHT22;3703;48.016;7.802;2023-05-16T14:12:57;13.20;1.00
7325;DHT22;3703;48.016;7.802;2023-05-16T14:15:25;13.50;1.00
7325;DHT22;3703;48.016;7.802;2023-05-16T14:17:52;13.40;1.00
7325;DHT22;3703;48.016;7.802;2023-05-16T14:20:19;13.30;1.00
7325;DHT22;3703;48.016;7.802;2023-05-16T14:22:47;13.00;1.00
7325;DHT22;3703;48.016;7.802;2023-05-16T14:25:16;12.90;1.00
7325;DHT22;3703;48.016;7.802;2023-05-16T14:27:43;13.10;1.00
7325;DHT22;3703;48.016;7.802;2023-05-16T14:30:11;13.30;1.00
7325;DHT22;3703;48.016;7.802;2023-05-16T14:32:39;13.00;1.00
7325;DHT22;3703;48.016;7.802;2023-05-16T14:35:07;12.80;1.00
7325;DHT22;3703;48.016;7.802;2023-05-16T14:37:35;13.10;1.00
7325;DHT22;3703;48.016;7.802;2023-05-16T14:40:02;13.10;1.00
7325;DHT22;3703;48.016;7.802;2023-05-16T14:42:32;13.20;1.00
7325;DHT22;3703;48.016;7.802;2023-05-16T14:44:59;13.10;1.00
7325;DHT22;3703;48.016;7.802;2023-05-16T14:52:23;13.00;1.00
7325;DHT22;3703;48.016;7.802;2023-05-16T14:54:50;13.00;1.00
7325;DHT22;3703;48.016;7.802;2023-05-16T14:59:46;13.20;1.00
7325;DHT22;3703;48.016;7.802;2023-05-16T15:02:15;13.70;1.00
7325;DHT22;3703;48.016;7.802;2023-05-16T15:04:42;13.40;1.00
7325;DHT22;3703;48.016;7.802;2023-05-16T15:07:09;13.40;1.00
7325;DHT22;3703;48.016;7.802;2023-05-16T15:09:36;13.40;1.00
7325;DHT22;3703;48.016;7.802;2023-05-16T15:12:04;13.40;1.00
7325;DHT22;3703;48.016;7.802;2023-05-16T15:14:32;13.20;1.00
7325;DHT22;3703;48.016;7.802;2023-05-16T15:17:01;13.00;1.00
7325;DHT22;3703;48.016;7.802;2023-05-16T15:19:28;13.10;1.00
7325;DHT22;3703;48.016;7.802;2023-05-16T15:21:56;12.90;1.00
7325;DHT22;3703;48.016;7.802;2023-05-16T15:24:23;12.80;1.00
7325;DHT22;3703;48.016;7.802;2023-05-16T15:26:51;13.00;1.00
7325;DHT22;3703;48.016;7.802;2023-05-16T15:31:45;13.00;1.00
7325;DHT22;3703;48.016;7.802;2023-05-16T15:34:14;12.80;1.00
7325;DHT22;3703;48.016;7.802;2023-05-16T15:36:41;12.80;1.00
7325;DHT22;3703;48.016;7.802;2023-05-16T15:41:36;12.70;1.00
7325;DHT22;3703;48.016;7.802;2023-05-16T15:44:04;12.70;1.00
7325;DHT22;3703;48.016;7.802;2023-05-16T15:46:31;12.80;1.00
7325;DHT22;3703;48.016;7.802;2023-05-16T15:48:58;12.90;1.00
7325;DHT22;3703;48.016;7.802;2023-05-16T15:51:27;14.60;1.00
7325;DHT22;3703;48.016;7.802;2023-05-16T15:53:54;12.90;1.00
7325;DHT22;3703;48.016;7.802;2023-05-16T15:56:21;13.00;1.00
7325;DHT22;3703;48.016;7.802;2023-05-16T15:58:48;12.90;1.00
7325;DHT22;3703;48.016;7.802;2023-05-16T16:01:15;13.00;1.00
7325;DHT22;3703;48.016;7.802;2023-05-16T16:03:43;12.90;1.00
7325;DHT22;3703;48.016;7.802;2023-05-16T16:06:10;12.60;1.00
7325;DHT22;3703;48.016;7.802;2023-05-16T16:08:39;12.50;1.00
7325;DHT22;3703;48.016;7.802;2023-05-16T16:11:06;12.50;1.00
7325;DHT22;3703;48.016;7.802;2023-05-16T16:13:34;12.50;1.00
7325;DHT22;3703;48.016;7.802;2023-05-16T16:16:01;12.80;1.00
7325;DHT22;3703;48.016;7.802;2023-05-16T16:18:28;12.60;1.00
7325;DHT22;3703;48.016;7.802;2023-05-16T16:20:55;12.70;1.00
7325;DHT22;3703;48.016;7.802;2023-05-16T16:23:22;12.80;1.00
7325;DHT22;3703;48.016;7.802;2023-05-16T16:25:51;12.80;1.00
7325;DHT22;3703;48.016;7.802;2023-05-16T16:28:18;12.80;1.00
7325;DHT22;3703;48.016;7.802;2023-05-16T16:30:46;12.80;1.00
7325;DHT22;3703;48.016;7.802;2023-05-16T16:33:14;12.90;1.00
7325;DHT22;3703;48.016;7.802;2023-05-16T16:35:42;13.00;1.00
7325;DHT22;3703;48.016;7.802;2023-05-16T16:38:09;13.10;1.00
7325;DHT22;3703;48.016;7.802;2023-05-16T16:40:36;13.00;1.00
7325;DHT22;3703;48.016;7.802;2023-05-16T16:43:05;12.90;1.00
7325;DHT22;3703;48.016;7.802;2023-05-16T16:45:32;12.90;1.00